createdAt,value
2023-03-12T00:01:30.723Z,9.70
2023-03-12T00:03:58.551Z,4.80
2023-03-12T00:06:25.990Z,8.23
2023-03-12T00:08:56.229Z,4.23
2023-03-12T00:11:23.670Z,4.40
2023-03-12T00:13:55.207Z,4.63
2023-03-12T00:16:23.125Z,4.20
2023-03-12T00:18:51.227Z,4.50
2023-03-12T00:21:18.643Z,3.47
2023-03-12T00:23:47.369Z,3.20
2023-03-12T00:26:15.465Z,3.60
2023-03-12T00:28:43.267Z,3.27
2023-03-12T00:31:15.408Z,3.30
2023-03-12T00:33:42.872Z,3.30
2023-03-12T00:36:10.298Z,3.67
2023-03-12T00:38:37.818Z,4.03
2023-03-12T00:41:05.368Z,6.80
2023-03-12T00:43:36.813Z,9.03
2023-03-12T00:46:04.237Z,6.40
2023-03-12T00:48:31.837Z,4.57
2023-03-12T00:50:59.198Z,4.63
2023-03-12T00:53:27.005Z,3.10
2023-03-12T00:55:54.330Z,3.23
2023-03-12T00:58:22.862Z,2.60
2023-03-12T01:00:50.112Z,2.67
2023-03-12T01:03:17.937Z,2.37
2023-03-12T01:05:45.280Z,3.00
2023-03-12T01:08:12.709Z,2.80
2023-03-12T01:10:43.700Z,2.70
2023-03-12T01:13:11.198Z,2.70
2023-03-12T01:15:38.836Z,2.73
2023-03-12T01:18:06.131Z,2.60
2023-03-12T01:20:33.495Z,2.80
2023-03-12T01:23:00.749Z,3.00
2023-03-12T01:25:30.747Z,2.43
2023-03-12T01:27:58.007Z,2.50
2023-03-12T01:30:25.370Z,2.80
2023-03-12T01:32:53.327Z,2.77
2023-03-12T01:35:20.645Z,3.37
2023-03-12T01:37:48.874Z,3.23
2023-03-12T01:40:17.705Z,2.77
2023-03-12T01:42:45.066Z,2.93
2023-03-12T01:45:32.527Z,2.50
2023-03-12T01:47:59.799Z,2.80
2023-03-12T01:50:27.050Z,3.10
2023-03-12T01:52:54.323Z,3.13
2023-03-12T01:55:21.611Z,3.13
2023-03-12T01:57:51.986Z,3.43
2023-03-12T02:00:22.276Z,3.03
2023-03-12T02:02:50.241Z,3.20
2023-03-12T02:05:20.816Z,2.83
2023-03-12T02:07:48.515Z,2.83
2023-03-12T02:10:16.752Z,2.90
2023-03-12T02:12:44.186Z,3.00
2023-03-12T02:15:11.663Z,2.97
2023-03-12T02:17:40.629Z,3.23
2023-03-12T02:20:17.154Z,3.20
2023-03-12T02:22:48.032Z,3.07
2023-03-12T02:25:18.410Z,3.40
2023-03-12T02:27:46.187Z,3.33
2023-03-12T02:30:16.163Z,3.50
2023-03-12T02:32:44.941Z,3.13
2023-03-12T02:35:12.381Z,3.13
2023-03-12T02:37:48.841Z,3.17
2023-03-12T02:40:36.864Z,3.10
2023-03-12T02:43:06.103Z,3.10
2023-03-12T02:45:34.868Z,3.20
2023-03-12T02:48:02.720Z,3.67
2023-03-12T02:50:30.018Z,3.40
2023-03-12T02:52:57.307Z,3.83
2023-03-12T02:55:24.896Z,4.03
2023-03-12T02:57:52.200Z,3.40
2023-03-12T03:00:19.753Z,3.27
2023-03-12T03:02:47.409Z,3.60
2023-03-12T03:05:15.655Z,3.50
2023-03-12T03:07:43.659Z,3.20
2023-03-12T03:10:11.431Z,3.57
2023-03-12T03:12:39.011Z,3.63
2023-03-12T03:15:06.658Z,3.40
2023-03-12T03:17:33.958Z,3.30
2023-03-12T03:20:01.475Z,3.20
2023-03-12T03:22:29.429Z,3.50
2023-03-12T03:24:56.682Z,2.93
2023-03-12T03:27:24.414Z,3.03
2023-03-12T03:29:51.688Z,3.27
2023-03-12T03:32:19.008Z,3.13
2023-03-12T03:34:46.847Z,2.40
2023-03-12T03:37:14.273Z,3.00
2023-03-12T03:39:41.530Z,2.63
2023-03-12T03:42:09.056Z,2.90
2023-03-12T03:44:36.343Z,2.80
2023-03-12T03:47:03.820Z,3.20
2023-03-12T03:49:31.116Z,3.27
2023-03-12T03:51:58.388Z,3.63
2023-03-12T03:54:26.050Z,3.53
2023-03-12T03:56:53.337Z,3.23
2023-03-12T03:59:20.665Z,3.20
2023-03-12T04:01:47.948Z,3.30
2023-03-12T04:04:15.518Z,2.87
2023-03-12T04:06:43.833Z,4.40
2023-03-12T04:09:11.438Z,4.03
2023-03-12T04:11:39.891Z,6.93
2023-03-12T04:14:07.547Z,12.97
2023-03-12T04:16:34.768Z,6.67
2023-03-12T04:19:02.289Z,4.90
2023-03-12T04:21:29.567Z,5.83
2023-03-12T04:23:57.015Z,3.63
2023-03-12T04:26:24.433Z,4.40
2023-03-12T04:28:51.660Z,3.67
2023-03-12T04:31:19.066Z,5.90
2023-03-12T04:33:46.724Z,8.80
2023-03-12T04:36:14.699Z,6.97
2023-03-12T04:38:42.057Z,5.77
2023-03-12T04:41:11.637Z,4.63
2023-03-12T04:43:38.973Z,4.17
2023-03-12T04:46:06.471Z,3.90
2023-03-12T04:48:34.226Z,3.97
2023-03-12T04:51:02.044Z,4.30
2023-03-12T04:53:29.376Z,4.07
2023-03-12T04:55:57.116Z,4.17
2023-03-12T04:58:24.832Z,3.70
2023-03-12T05:00:52.225Z,4.87
2023-03-12T05:03:19.831Z,4.10
2023-03-12T05:05:47.101Z,4.90
2023-03-12T05:08:14.362Z,5.73
2023-03-12T05:10:45.254Z,6.57
2023-03-12T05:13:17.501Z,6.87
2023-03-12T05:15:44.919Z,9.97
2023-03-12T05:18:12.514Z,10.87
2023-03-12T05:20:39.846Z,11.87
2023-03-12T05:23:07.116Z,12.53
2023-03-12T05:25:41.528Z,16.00
2023-03-12T05:28:09.180Z,15.50
2023-03-12T05:30:36.473Z,17.03
2023-03-12T05:33:03.788Z,18.67
2023-03-12T05:35:31.093Z,19.77
2023-03-12T05:37:58.424Z,21.87
2023-03-12T05:40:25.722Z,20.70
2023-03-12T05:42:54.018Z,21.13
2023-03-12T05:45:21.693Z,22.57
2023-03-12T05:47:49.333Z,21.27
2023-03-12T05:50:16.868Z,21.60
2023-03-12T05:52:44.099Z,21.80
2023-03-12T05:55:12.082Z,23.13
2023-03-12T05:57:39.345Z,22.13
2023-03-12T06:00:07.043Z,22.33
2023-03-12T06:02:34.314Z,22.37
2023-03-12T06:05:02.836Z,22.67
2023-03-12T06:07:30.428Z,23.07
2023-03-12T06:10:00.210Z,22.97
2023-03-12T06:12:27.590Z,22.10
2023-03-12T06:14:54.856Z,21.50
2023-03-12T06:17:22.088Z,22.93
2023-03-12T06:19:52.874Z,22.37
2023-03-12T06:22:20.790Z,22.87
2023-03-12T06:24:48.064Z,21.60
2023-03-12T06:27:15.945Z,22.57
2023-03-12T06:29:43.217Z,21.10
2023-03-12T06:32:10.968Z,20.60
2023-03-12T06:34:39.483Z,18.90
2023-03-12T06:37:06.808Z,19.30
2023-03-12T06:39:34.871Z,18.67
2023-03-12T06:42:02.141Z,18.43
2023-03-12T06:44:29.572Z,18.30
2023-03-12T06:46:56.857Z,18.00
2023-03-12T06:49:24.378Z,16.50
2023-03-12T06:51:52.002Z,18.10
2023-03-12T06:54:19.296Z,16.93
2023-03-12T06:56:46.610Z,15.60
2023-03-12T06:59:14.172Z,16.57
2023-03-12T07:01:41.887Z,15.00
2023-03-12T07:04:09.266Z,14.50
2023-03-12T07:06:36.493Z,13.80
2023-03-12T07:09:05.350Z,12.70
2023-03-12T07:11:32.634Z,12.23
2023-03-12T07:13:59.883Z,12.33
2023-03-12T07:16:27.204Z,14.13
2023-03-12T07:18:54.753Z,13.07
2023-03-12T07:21:23.896Z,14.13
2023-03-12T07:23:51.614Z,14.83
2023-03-12T07:26:19.460Z,14.37
2023-03-12T07:28:47.411Z,14.83
2023-03-12T07:31:14.862Z,14.23
2023-03-12T07:33:42.294Z,15.07
2023-03-12T07:36:10.028Z,15.17
2023-03-12T07:38:38.013Z,15.70
2023-03-12T07:41:05.390Z,16.00
2023-03-12T07:43:33.099Z,15.57
2023-03-12T07:46:00.527Z,16.27
2023-03-12T07:48:27.788Z,15.70
2023-03-12T07:50:55.221Z,15.57
2023-03-12T07:53:22.488Z,15.73
2023-03-12T07:55:50.366Z,15.17
2023-03-12T07:58:18.197Z,15.83
2023-03-12T08:00:45.513Z,15.87
2023-03-12T08:03:13.604Z,14.57
2023-03-12T08:05:41.669Z,13.40
2023-03-12T08:08:09.633Z,13.70
2023-03-12T08:10:37.542Z,13.63
2023-03-12T08:13:05.117Z,13.17
2023-03-12T08:15:33.522Z,14.63
2023-03-12T08:18:01.511Z,13.60
2023-03-12T08:20:29.005Z,12.03
2023-03-12T08:22:57.443Z,12.87
2023-03-12T08:25:25.056Z,11.10
2023-03-12T08:27:52.619Z,11.47
2023-03-12T08:30:19.903Z,11.23
2023-03-12T08:32:47.657Z,10.47
2023-03-12T08:35:14.917Z,10.13
2023-03-12T08:37:42.239Z,7.77
2023-03-12T08:40:15.822Z,8.17
2023-03-12T08:42:44.122Z,8.90
2023-03-12T08:45:12.373Z,8.33
2023-03-12T08:47:41.826Z,8.27
2023-03-12T08:50:09.897Z,8.17
2023-03-12T08:52:37.226Z,7.83
2023-03-12T08:55:06.047Z,8.03
2023-03-12T08:57:33.752Z,7.23
2023-03-12T09:00:01.106Z,6.73
2023-03-12T09:02:28.841Z,7.07
2023-03-12T09:04:56.089Z,8.67
2023-03-12T09:07:24.008Z,7.10
2023-03-12T09:09:51.386Z,5.90
2023-03-12T09:12:18.943Z,5.97
2023-03-12T09:15:03.835Z,5.50
2023-03-12T09:17:32.109Z,5.30
2023-03-12T09:20:00.226Z,6.33
2023-03-12T09:22:27.576Z,6.13
2023-03-12T09:24:56.138Z,5.50
2023-03-12T09:27:23.581Z,6.60
2023-03-12T09:30:07.078Z,6.90
2023-03-12T09:32:34.791Z,5.43
2023-03-12T09:35:02.141Z,6.20
2023-03-12T09:37:29.825Z,5.17
2023-03-12T09:39:57.253Z,5.63
2023-03-12T09:42:26.640Z,6.37
2023-03-12T09:44:57.024Z,5.50
2023-03-12T09:47:25.331Z,6.77
2023-03-12T09:49:57.125Z,8.43
2023-03-12T09:52:33.906Z,5.80
2023-03-12T09:55:15.130Z,7.10
2023-03-12T09:57:43.337Z,6.97
2023-03-12T10:00:15.448Z,4.90
2023-03-12T10:03:01.657Z,10.57
2023-03-12T10:05:39.706Z,30.27
2023-03-12T10:08:23.912Z,17.40
2023-03-12T10:10:55.474Z,12.90
2023-03-12T10:13:22.754Z,4.50
2023-03-12T10:15:50.105Z,4.63
2023-03-12T10:18:39.469Z,3.30
2023-03-12T10:21:25.801Z,4.47
2023-03-12T10:24:00.117Z,4.23
2023-03-12T10:26:37.999Z,3.20
2023-03-12T10:29:12.484Z,3.00
2023-03-12T10:32:01.800Z,2.40
2023-03-12T10:34:49.801Z,1.60
2023-03-12T10:37:17.145Z,2.00
2023-03-12T10:39:44.715Z,1.87
2023-03-12T10:42:19.599Z,1.67
2023-03-12T10:44:52.148Z,1.60
2023-03-12T10:47:19.436Z,1.80
2023-03-12T10:49:51.160Z,1.90
2023-03-12T10:52:22.834Z,1.80
2023-03-12T10:54:51.832Z,2.27
2023-03-12T10:57:19.597Z,2.90
2023-03-12T10:59:47.941Z,4.43
2023-03-12T11:02:35.708Z,6.47
2023-03-12T11:05:05.727Z,9.97
2023-03-12T11:07:33.998Z,2.93
2023-03-12T11:10:07.493Z,2.40
2023-03-12T11:12:36.244Z,1.70
2023-03-12T11:15:22.312Z,2.07
2023-03-12T11:17:49.653Z,2.23
2023-03-12T11:20:35.034Z,1.90
2023-03-12T11:23:14.097Z,1.80
2023-03-12T11:25:41.450Z,3.17
2023-03-12T11:28:14.528Z,7.67
2023-03-12T11:30:41.938Z,5.40
2023-03-12T11:33:10.248Z,5.07
2023-03-12T11:35:40.784Z,2.20
2023-03-12T11:38:18.281Z,2.50
2023-03-12T11:40:52.080Z,2.00
2023-03-12T11:43:42.758Z,1.77
2023-03-12T11:46:13.928Z,4.43
2023-03-12T11:48:41.278Z,2.20
2023-03-12T11:51:08.722Z,3.37
2023-03-12T11:53:54.975Z,4.00
2023-03-12T11:56:35.261Z,5.47
2023-03-12T11:59:22.405Z,1.90
2023-03-12T12:01:58.726Z,2.20
2023-03-12T12:04:32.209Z,5.60
2023-03-12T12:07:03.090Z,3.03
2023-03-12T12:09:51.170Z,2.20
2023-03-12T12:12:39.256Z,1.90
2023-03-12T12:15:10.615Z,2.13
2023-03-12T12:17:56.661Z,1.90
2023-03-12T12:20:39.845Z,1.70
2023-03-12T12:23:13.620Z,1.70
2023-03-12T12:26:06.067Z,1.63
2023-03-12T12:28:54.381Z,1.57
2023-03-12T12:31:21.843Z,7.50
2023-03-12T12:34:02.103Z,2.73
2023-03-12T12:36:32.192Z,3.30
2023-03-12T12:39:01.619Z,4.30
2023-03-12T12:41:33.174Z,11.80
2023-03-12T12:44:02.198Z,13.40
2023-03-12T12:46:33.261Z,5.80
2023-03-12T12:49:04.172Z,2.27
2023-03-12T12:51:33.479Z,3.37
2023-03-12T12:54:08.071Z,8.37
2023-03-12T12:56:42.858Z,4.40
2023-03-12T12:59:33.877Z,14.77
2023-03-12T13:02:02.339Z,2.43
2023-03-12T13:04:33.441Z,3.47
2023-03-12T13:07:13.154Z,2.10
2023-03-12T13:09:41.111Z,2.70
2023-03-12T13:12:28.956Z,2.20
2023-03-12T13:14:57.221Z,3.23
2023-03-12T13:17:25.587Z,2.30
2023-03-12T13:20:01.266Z,2.90
2023-03-12T13:22:32.185Z,2.33
2023-03-12T13:25:10.850Z,2.37
2023-03-12T13:27:40.203Z,1.50
2023-03-12T13:30:28.091Z,1.87
2023-03-12T13:32:58.937Z,1.50
2023-03-12T13:35:26.282Z,1.63
2023-03-12T13:37:54.057Z,1.77
2023-03-12T13:40:30.575Z,1.20
2023-03-12T13:43:12.177Z,1.40
2023-03-12T13:45:55.691Z,1.50
2023-03-12T13:48:23.628Z,2.60
2023-03-12T13:51:02.231Z,1.20
2023-03-12T13:53:40.697Z,1.20
2023-03-12T13:56:11.546Z,1.00
2023-03-12T13:58:49.088Z,2.00
2023-03-12T14:01:19.702Z,2.10
2023-03-12T14:03:49.997Z,1.33
2023-03-12T14:06:25.753Z,1.60
2023-03-12T14:08:59.496Z,1.17
2023-03-12T14:11:40.642Z,1.70
2023-03-12T14:14:25.401Z,1.33
2023-03-12T14:16:53.452Z,1.30
2023-03-12T14:19:25.712Z,1.40
2023-03-12T14:21:53.796Z,1.40
2023-03-12T14:24:21.433Z,1.20
2023-03-12T14:26:48.931Z,1.50
2023-03-12T14:29:22.298Z,1.50
2023-03-12T14:31:50.304Z,1.30
2023-03-12T14:34:28.003Z,1.50
2023-03-12T14:37:01.577Z,1.50
2023-03-12T14:39:31.993Z,1.50
2023-03-12T14:42:05.109Z,1.77
2023-03-12T14:44:34.260Z,1.40
2023-03-12T14:47:12.260Z,2.77
2023-03-12T14:49:41.041Z,1.40
2023-03-12T14:52:08.656Z,1.40
2023-03-12T14:54:36.057Z,1.30
2023-03-12T14:57:03.433Z,1.73
2023-03-12T14:59:37.741Z,1.80
2023-03-12T15:02:12.192Z,1.50
2023-03-12T15:04:39.795Z,1.40
2023-03-12T15:07:10.350Z,1.40
2023-03-12T15:09:37.978Z,1.40
2023-03-12T15:12:07.902Z,1.30
2023-03-12T15:14:39.463Z,1.40
2023-03-12T15:17:08.044Z,1.67
2023-03-12T15:19:40.369Z,3.80
2023-03-12T15:22:11.133Z,2.53
2023-03-12T15:24:40.808Z,1.47
2023-03-12T15:27:23.630Z,2.00
2023-03-12T15:29:51.046Z,1.57
2023-03-12T15:32:20.790Z,1.50
2023-03-12T15:34:50.387Z,4.70
2023-03-12T15:37:38.213Z,1.60
2023-03-12T15:40:07.939Z,1.70
2023-03-12T15:42:43.141Z,1.60
2023-03-12T15:45:21.617Z,1.93
2023-03-12T15:47:49.634Z,2.30
2023-03-12T15:50:24.567Z,1.60
2023-03-12T15:53:01.121Z,1.50
2023-03-12T15:55:32.958Z,1.40
2023-03-12T15:58:00.958Z,1.50
2023-03-12T16:00:44.991Z,1.83
2023-03-12T16:03:19.560Z,1.50
2023-03-12T16:05:47.891Z,1.33
2023-03-12T16:08:16.919Z,1.40
2023-03-12T16:10:44.638Z,1.50
2023-03-12T16:13:14.822Z,1.73
2023-03-12T16:15:42.187Z,1.43
2023-03-12T16:18:17.076Z,1.50
2023-03-12T16:20:44.815Z,2.63
2023-03-12T16:23:12.714Z,1.40
2023-03-12T16:25:40.416Z,1.60
2023-03-12T16:28:08.400Z,1.70
2023-03-12T16:30:36.925Z,1.73
2023-03-12T16:33:08.740Z,1.97
2023-03-12T16:35:36.620Z,2.00
2023-03-12T16:38:04.384Z,2.00
2023-03-12T16:40:34.304Z,2.40
2023-03-12T16:43:03.867Z,1.80
2023-03-12T16:45:32.299Z,2.33
2023-03-12T16:48:00.808Z,2.00
2023-03-12T16:50:28.434Z,2.20
2023-03-12T16:52:56.460Z,3.00
2023-03-12T16:55:26.453Z,3.90
2023-03-12T16:57:55.466Z,2.80
2023-03-12T17:00:24.872Z,2.20
2023-03-12T17:02:57.818Z,2.30
2023-03-12T17:05:29.138Z,2.70
2023-03-12T17:07:56.854Z,2.77
2023-03-12T17:10:25.318Z,2.27
2023-03-12T17:12:53.195Z,2.60
2023-03-12T17:15:23.657Z,2.43
2023-03-12T17:17:51.072Z,5.10
2023-03-12T17:20:19.683Z,4.20
2023-03-12T17:22:47.060Z,5.00
2023-03-12T17:25:26.025Z,2.60
2023-03-12T17:27:54.214Z,3.87
2023-03-12T17:30:22.162Z,3.60
2023-03-12T17:32:50.272Z,3.30
2023-03-12T17:35:18.470Z,3.23
2023-03-12T17:37:48.426Z,2.50
2023-03-12T17:40:16.380Z,2.40
2023-03-12T17:42:43.718Z,2.70
2023-03-12T17:45:11.348Z,2.50
2023-03-12T17:47:38.694Z,2.00
2023-03-12T17:50:06.969Z,1.90
2023-03-12T17:52:35.137Z,2.37
2023-03-12T17:55:03.575Z,3.43
2023-03-12T17:57:31.056Z,2.40
2023-03-12T17:59:58.307Z,2.40
2023-03-12T18:02:25.577Z,2.23
2023-03-12T18:04:53.121Z,2.10
2023-03-12T18:07:20.479Z,2.50
2023-03-12T18:09:47.750Z,2.43
2023-03-12T18:12:15.089Z,2.27
2023-03-12T18:14:42.693Z,2.20
2023-03-12T18:17:10.768Z,1.80
2023-03-12T18:19:38.072Z,2.23
2023-03-12T18:22:07.231Z,2.50
2023-03-12T18:24:34.901Z,5.70
2023-03-12T18:27:02.224Z,3.47
2023-03-12T18:29:30.000Z,3.50
2023-03-12T18:31:57.230Z,2.87
2023-03-12T18:34:24.587Z,3.07
2023-03-12T18:36:51.945Z,2.40
2023-03-12T18:39:19.361Z,2.73
2023-03-12T18:41:47.117Z,2.90
2023-03-12T18:44:14.571Z,3.30
2023-03-12T18:46:43.019Z,4.73
2023-03-12T18:49:12.506Z,4.10
2023-03-12T18:51:39.806Z,3.77
2023-03-12T18:54:07.176Z,4.50
2023-03-12T18:56:38.212Z,5.37
2023-03-12T18:59:05.934Z,4.43
2023-03-12T19:01:33.387Z,3.60
2023-03-12T19:04:01.052Z,3.03
2023-03-12T19:06:31.249Z,3.17
2023-03-12T19:09:05.695Z,2.97
2023-03-12T19:11:32.976Z,3.47
2023-03-12T19:14:02.177Z,2.70
2023-03-12T19:16:30.067Z,4.40
2023-03-12T19:18:57.588Z,4.63
2023-03-12T19:21:24.891Z,3.70
2023-03-12T19:23:53.167Z,3.13
2023-03-12T19:26:20.661Z,3.00
2023-03-12T19:28:47.886Z,3.37
2023-03-12T19:31:15.576Z,3.17
2023-03-12T19:33:43.943Z,3.43
2023-03-12T19:36:11.600Z,3.10
2023-03-12T19:38:39.053Z,3.20
2023-03-12T19:41:08.686Z,3.07
2023-03-12T19:43:36.996Z,2.60
2023-03-12T19:46:04.794Z,2.80
2023-03-12T19:48:32.272Z,2.70
2023-03-12T19:51:05.634Z,2.70
2023-03-12T19:53:33.214Z,2.50
2023-03-12T19:56:00.552Z,3.10
2023-03-12T19:58:28.215Z,2.70
2023-03-12T20:00:58.265Z,3.60
2023-03-12T20:03:25.773Z,3.77
2023-03-12T20:05:53.331Z,4.37
2023-03-12T20:08:22.011Z,3.50
2023-03-12T20:10:49.777Z,3.10
2023-03-12T20:13:17.971Z,3.57
2023-03-12T20:15:47.053Z,3.37
2023-03-12T20:18:15.023Z,2.97
2023-03-12T20:20:42.998Z,3.53
2023-03-12T20:23:10.391Z,2.83
2023-03-12T20:25:41.187Z,3.30
2023-03-12T20:28:09.239Z,3.83
2023-03-12T20:30:37.221Z,3.87
2023-03-12T20:33:06.013Z,3.73
2023-03-12T20:35:33.579Z,4.10
2023-03-12T20:38:01.120Z,3.20
2023-03-12T20:40:28.952Z,3.70
2023-03-12T20:42:56.857Z,3.33
2023-03-12T20:45:24.540Z,3.70
2023-03-12T20:47:51.927Z,4.23
2023-03-12T20:50:19.237Z,4.27
2023-03-12T20:52:49.801Z,3.60
2023-03-12T20:55:17.090Z,3.23
2023-03-12T20:57:46.428Z,3.80
2023-03-12T21:00:14.024Z,4.20
2023-03-12T21:02:42.166Z,3.37
2023-03-12T21:05:11.629Z,3.07
2023-03-12T21:07:39.037Z,3.40
2023-03-12T21:10:06.554Z,3.17
2023-03-12T21:12:33.835Z,3.77
2023-03-12T21:15:06.486Z,3.57
2023-03-12T21:17:34.732Z,4.10
2023-03-12T21:20:02.732Z,4.13
2023-03-12T21:22:30.703Z,4.43
2023-03-12T21:24:58.725Z,4.33
2023-03-12T21:27:26.016Z,4.93
2023-03-12T21:29:53.906Z,5.10
2023-03-12T21:32:22.776Z,6.80
2023-03-12T21:34:50.294Z,5.50
2023-03-12T21:37:17.623Z,4.50
2023-03-12T21:39:45.053Z,3.90
2023-03-12T21:42:12.392Z,3.47
2023-03-12T21:44:39.653Z,3.83
2023-03-12T21:47:07.382Z,2.80
2023-03-12T21:49:35.112Z,2.93
2023-03-12T21:52:03.530Z,2.83
2023-03-12T21:54:34.794Z,3.00
2023-03-12T21:57:03.456Z,2.90
2023-03-12T21:59:31.042Z,3.50
2023-03-12T22:01:58.758Z,2.70
2023-03-12T22:04:26.384Z,3.33
2023-03-12T22:06:53.813Z,3.97
2023-03-12T22:09:21.112Z,4.87
2023-03-12T22:11:48.596Z,4.87
2023-03-12T22:14:15.976Z,3.83
2023-03-12T22:16:43.307Z,3.80
2023-03-12T22:19:10.912Z,3.57
2023-03-12T22:21:38.681Z,4.30
2023-03-12T22:24:06.164Z,3.87
2023-03-12T22:26:33.520Z,3.77
2023-03-12T22:29:01.442Z,5.87
2023-03-12T22:31:29.765Z,3.60
2023-03-12T22:33:58.125Z,4.00
2023-03-12T22:36:25.620Z,3.90
2023-03-12T22:38:53.097Z,4.27
2023-03-12T22:41:27.661Z,4.50
2023-03-12T22:43:56.229Z,4.80
2023-03-12T22:46:25.161Z,5.63
2023-03-12T22:48:54.029Z,5.50
2023-03-12T22:51:21.333Z,5.43
2023-03-12T22:53:48.570Z,5.00
2023-03-12T22:56:16.352Z,4.07
2023-03-12T22:58:45.498Z,4.20
2023-03-12T23:01:14.194Z,5.10
2023-03-12T23:03:42.665Z,4.60
2023-03-12T23:06:11.255Z,4.43
2023-03-12T23:08:38.956Z,3.53
2023-03-12T23:11:06.684Z,3.60
2023-03-12T23:13:35.129Z,4.47
2023-03-12T23:16:06.507Z,3.70
2023-03-12T23:18:34.703Z,3.40
2023-03-12T23:21:03.065Z,4.03
2023-03-12T23:23:30.555Z,4.53
2023-03-12T23:25:58.699Z,3.30
2023-03-12T23:28:27.129Z,3.43
2023-03-12T23:30:58.488Z,3.07
2023-03-12T23:33:26.358Z,2.90
2023-03-12T23:35:58.311Z,3.30
2023-03-12T23:38:26.651Z,3.03
2023-03-12T23:40:54.177Z,2.83
2023-03-12T23:43:21.415Z,2.70
2023-03-12T23:45:55.829Z,2.90
2023-03-12T23:48:23.173Z,2.30
2023-03-12T23:50:50.648Z,3.50
2023-03-12T23:53:17.920Z,2.70
2023-03-12T23:55:54.594Z,3.17
2023-03-12T23:58:21.890Z,3.10
